Time;durP1;ratioP1;P1;durP2;ratioP2;P2;SDS_P1;SDS_P2;PMS_P1;PMS_P2;Temp;Humidity;BMP_temperature;BMP_pressure;BME280_temperature;BME280_humidity;BME280_pressure;Samples;Min_cycle;Max_cycle;Signal;HPM_P1;HPM_P2
2022/09/04 00:01:29;;;;;;;0.90;0.90;;;14.70;99.90;;;;;;4937166;29;20884;-69
2022/09/04 00:04:10;;;;;;;0.60;0.60;;;14.70;99.90;;;;;;4936294;29;20466;-69
2022/09/04 00:06:42;;;;;;;0.70;0.70;;;14.60;99.90;;;;;;4934746;29;20485;-69
2022/09/04 00:09:16;;;;;;;1.70;1.43;;;14.60;99.90;;;;;;4935909;29;20491;-68
2022/09/04 00:11:51;;;;;;;0.50;0.50;;;14.60;99.90;;;;;;4937141;29;20558;-69
2022/09/04 00:14:21;;;;;;;0.60;0.60;;;14.60;99.90;;;;;;4936634;29;20462;-68
2022/09/04 00:16:54;;;;;;;0.67;0.67;;;14.50;99.90;;;;;;4936821;29;20470;-69
2022/09/04 00:19:30;;;;;;;0.50;0.50;;;14.50;99.90;;;;;;4935930;29;20922;-68
2022/09/04 00:21:59;;;;;;;0.47;0.47;;;14.50;99.90;;;;;;4934217;29;20508;-69
2022/09/04 00:24:30;;;;;;;0.93;0.77;;;14.50;99.90;;;;;;4935957;29;20502;-68
2022/09/04 00:27:03;;;;;;;0.50;0.50;;;14.40;99.90;;;;;;4936401;29;20526;-69
2022/09/04 00:29:40;;;;;;;0.77;0.77;;;14.40;99.90;;;;;;4936598;29;20487;-68
2022/09/04 00:32:17;;;;;;;0.73;0.73;;;14.40;99.90;;;;;;4944847;29;20799;-68
2022/09/04 00:35:01;;;;;;;0.73;0.73;;;14.40;99.90;;;;;;4938750;29;20496;-68
2022/09/04 00:37:32;;;;;;;0.60;0.60;;;14.40;99.90;;;;;;4951828;28;20965;-68
2022/09/04 00:40:07;;;;;;;0.50;0.50;;;14.40;99.90;;;;;;4942684;29;20466;-69
2022/09/04 00:42:46;;;;;;;0.57;0.57;;;14.30;99.90;;;;;;4938091;28;20550;-69
2022/09/04 00:45:24;;;;;;;0.60;0.60;;;14.30;99.90;;;;;;4946424;28;20482;-68
2022/09/04 00:48:12;;;;;;;0.73;0.73;;;14.30;99.90;;;;;;4938133;29;20508;-68
2022/09/04 00:51:02;;;;;;;0.70;0.70;;;14.20;99.90;;;;;;4935856;29;20475;-68
2022/09/04 00:53:51;;;;;;;0.77;0.77;;;14.20;99.90;;;;;;4935757;29;20498;-69
2022/09/04 00:56:44;;;;;;;0.50;0.50;;;14.10;99.90;;;;;;4933294;29;20582;-69
2022/09/04 00:59:22;;;;;;;0.67;0.67;;;14.10;99.90;;;;;;4931830;29;20499;-69
2022/09/04 01:01:50;;;;;;;2.53;0.87;;;14.10;99.90;;;;;;4936039;29;20471;-68
2022/09/04 01:04:35;;;;;;;0.67;0.67;;;14.00;99.90;;;;;;4936336;29;20963;-68
2022/09/04 01:07:25;;;;;;;0.63;0.63;;;14.00;99.90;;;;;;4935930;29;20491;-69
2022/09/04 01:10:19;;;;;;;0.73;0.73;;;14.00;99.90;;;;;;4935736;29;20482;-69
2022/09/04 01:12:51;;;;;;;0.90;0.90;;;14.00;99.90;;;;;;4932319;29;20485;-68
2022/09/04 01:15:24;;;;;;;0.77;0.77;;;13.90;99.90;;;;;;4935694;29;20503;-69
2022/09/04 01:18:02;;;;;;;0.70;0.70;;;13.90;99.90;;;;;;4935363;29;20500;-68
2022/09/04 01:20:52;;;;;;;3.20;0.70;;;13.90;99.90;;;;;;4935495;29;20475;-68
2022/09/04 01:23:33;;;;;;;0.40;0.40;;;13.80;99.90;;;;;;4932087;29;20482;-69
2022/09/04 01:26:08;;;;;;;0.60;0.60;;;13.80;99.90;;;;;;4929687;29;20468;-69
2022/09/04 01:28:46;;;;;;;0.60;0.60;;;13.80;99.90;;;;;;4936236;29;20492;-69
2022/09/04 01:31:35;;;;;;;0.80;0.80;;;13.80;99.90;;;;;;4933944;29;20529;-68
2022/09/04 01:34:16;;;;;;;1.00;1.00;;;13.80;99.90;;;;;;4934501;29;20537;-69
2022/09/04 01:36:49;;;;;;;13.10;0.80;;;13.70;99.90;;;;;;4935396;29;20480;-68
2022/09/04 01:39:18;;;;;;;0.50;0.50;;;13.70;99.90;;;;;;4934767;29;20228;-69
2022/09/04 01:41:53;;;;;;;0.70;0.70;;;13.70;99.90;;;;;;4935278;29;20474;-68
2022/09/04 01:44:20;;;;;;;1.37;0.60;;;13.70;99.90;;;;;;4933501;29;20499;-68
2022/09/04 01:47:00;;;;;;;2.05;0.73;;;13.70;99.90;;;;;;4930878;29;20476;-68
2022/09/04 01:49:36;;;;;;;0.70;0.70;;;13.60;99.90;;;;;;4943194;29;20229;-69
2022/09/04 01:52:13;;;;;;;0.80;0.80;;;13.60;99.90;;;;;;4934512;29;20468;-68
2022/09/04 01:54:50;;;;;;;0.63;0.63;;;13.60;99.90;;;;;;4935361;29;20909;-68
2022/09/04 01:57:29;;;;;;;0.40;0.40;;;13.50;99.90;;;;;;4940164;29;20227;-69
2022/09/04 02:00:04;;;;;;;0.70;0.70;;;13.50;99.90;;;;;;4942054;28;20219;-68
2022/09/04 02:02:41;;;;;;;0.65;0.65;;;13.50;99.90;;;;;;4933541;29;20215;-68
2022/09/04 02:05:18;;;;;;;0.40;0.40;;;13.50;99.90;;;;;;4936115;29;20316;-68
2022/09/04 02:07:48;;;;;;;0.83;0.83;;;13.50;99.90;;;;;;4935590;29;20243;-68
2022/09/04 02:10:27;;;;;;;0.83;0.83;;;13.40;99.90;;;;;;4935623;29;20469;-68
2022/09/04 02:13:06;;;;;;;0.55;0.55;;;13.40;99.90;;;;;;4915992;29;20468;-68
2022/09/04 02:15:41;;;;;;;0.60;0.60;;;13.40;99.90;;;;;;4927139;29;20211;-69
2022/09/04 02:18:18;;;;;;;0.65;0.65;;;13.40;99.90;;;;;;4932674;29;20231;-68
2022/09/04 02:20:53;;;;;;;0.88;0.70;;;13.40;99.90;;;;;;4927872;29;20225;-69
2022/09/04 02:23:28;;;;;;;4.10;0.82;;;13.40;99.90;;;;;;4934157;29;20225;-68
2022/09/04 02:26:01;;;;;;;0.82;0.82;;;13.40;99.90;;;;;;4935517;29;20297;-68
2022/09/04 02:28:43;;;;;;;3.50;0.77;;;13.40;99.90;;;;;;4935126;29;20230;-69
2022/09/04 02:31:18;;;;;;;0.60;0.60;;;13.30;99.90;;;;;;4935557;29;20199;-68
2022/09/04 02:33:50;;;;;;;0.60;0.60;;;13.30;99.90;;;;;;4932303;29;20644;-68
2022/09/04 02:36:23;;;;;;;1.00;0.80;;;13.40;99.90;;;;;;4934221;29;20211;-69
2022/09/04 02:38:57;;;;;;;0.60;0.60;;;13.30;99.90;;;;;;4933386;29;20231;-69
2022/09/04 02:41:32;;;;;;;0.77;0.77;;;13.30;99.90;;;;;;4934406;29;20203;-68
2022/09/04 02:44:13;;;;;;;0.80;0.80;;;13.30;99.90;;;;;;4933852;29;20211;-68
2022/09/04 02:46:53;;;;;;;0.40;0.40;;;13.30;99.90;;;;;;4934272;29;20681;-69
2022/09/04 02:49:29;;;;;;;0.30;0.30;;;13.30;99.90;;;;;;4932486;29;20228;-68
2022/09/04 02:52:08;;;;;;;1.52;0.60;;;13.20;99.90;;;;;;4933667;29;20215;-69
2022/09/04 02:54:51;;;;;;;0.88;0.88;;;13.20;99.90;;;;;;4933496;29;20206;-69
2022/09/04 02:57:32;;;;;;;1.05;1.05;;;13.20;99.90;;;;;;4933598;29;20230;-68
2022/09/04 03:00:07;;;;;;;0.63;0.63;;;13.20;99.90;;;;;;4943679;29;20207;-68
2022/09/04 03:02:38;;;;;;;0.63;0.63;;;13.20;99.90;;;;;;4941779;28;20210;-68
2022/09/04 03:05:14;;;;;;;0.82;0.82;;;13.20;99.90;;;;;;4929792;29;20208;-68
2022/09/04 03:07:46;;;;;;;1.17;1.17;;;13.20;99.90;;;;;;4938072;29;20233;-68
2022/09/04 03:10:17;;;;;;;0.70;0.70;;;13.20;99.90;;;;;;4944945;28;20557;-68
2022/09/04 03:12:50;;;;;;;0.70;0.70;;;13.10;99.90;;;;;;4938534;29;20673;-68
2022/09/04 03:15:26;;;;;;;0.60;0.60;;;13.10;99.90;;;;;;4946410;29;20200;-69
2022/09/04 03:17:58;;;;;;;0.50;0.50;;;13.10;99.90;;;;;;4952643;28;20644;-68
2022/09/04 03:20:27;;;;;;;1.00;1.00;;;13.10;99.90;;;;;;4933080;29;20290;-68
2022/09/04 03:23:00;;;;;;;0.70;0.70;;;13.10;99.90;;;;;;4932852;29;20680;-68
2022/09/04 03:26:14;;;;;;;0.65;0.65;;;13.10;99.90;;;;;;4932948;29;20212;-68
2022/09/04 03:28:53;;;;;;;1.05;1.05;;;13.10;99.90;;;;;;4855253;29;20240;-68
2022/09/04 03:31:36;;;;;;;0.85;0.85;;;13.00;99.90;;;;;;4930547;29;20257;-68
2022/09/04 03:34:36;;;;;;;0.60;0.60;;;13.00;99.90;;;;;;4933066;29;20699;-68
2022/09/04 03:37:20;;;;;;;0.88;0.88;;;13.00;99.90;;;;;;4927802;29;20221;-68
2022/09/04 03:39:58;;;;;;;1.40;1.30;;;13.00;99.90;;;;;;4927699;29;20205;-68
2022/09/04 03:42:35;;;;;;;0.40;0.40;;;13.00;99.90;;;;;;4931541;29;20205;-68
2022/09/04 03:45:20;;;;;;;0.73;0.73;;;13.00;99.90;;;;;;4933648;29;20218;-68
2022/09/04 03:48:03;;;;;;;1.00;1.00;;;12.90;99.90;;;;;;4932659;29;20234;-67
2022/09/04 03:50:33;;;;;;;1.08;1.08;;;12.90;99.90;;;;;;4933154;29;20287;-68
2022/09/04 03:53:09;;;;;;;0.82;0.82;;;12.90;99.90;;;;;;4932329;29;20670;-68
2022/09/04 03:55:55;;;;;;;0.85;0.82;;;12.90;99.90;;;;;;4931983;29;20218;-68
2022/09/04 03:58:36;;;;;;;1.05;0.98;;;12.90;99.90;;;;;;4933046;29;20230;-68
2022/09/04 04:01:12;;;;;;;0.73;0.73;;;12.90;99.90;;;;;;4933356;29;20212;-68
2022/09/04 04:04:07;;;;;;;0.77;0.77;;;12.90;99.90;;;;;;4919088;29;20211;-68
2022/09/04 04:06:45;;;;;;;0.93;0.93;;;12.80;99.90;;;;;;4932936;29;20208;-68
2022/09/04 04:09:44;;;;;;;1.00;0.90;;;12.80;99.90;;;;;;4913473;29;20240;-69
2022/09/04 04:12:26;;;;;;;0.70;0.70;;;12.80;99.90;;;;;;4931810;29;20234;-67
2022/09/04 04:15:07;;;;;;;1.48;1.35;;;12.80;99.90;;;;;;4921296;29;20207;-67
2022/09/04 04:17:50;;;;;;;1.10;1.10;;;12.80;99.90;;;;;;4944105;29;20880;-68
2022/09/04 04:20:33;;;;;;;0.75;0.75;;;12.70;99.90;;;;;;4952037;28;20218;-68
2022/09/04 04:23:28;;;;;;;0.80;0.80;;;12.70;99.90;;;;;;4931674;29;20210;-68
2022/09/04 04:26:05;;;;;;;0.50;0.50;;;12.70;99.90;;;;;;4927510;29;20352;-68
2022/09/04 04:28:55;;;;;;;0.85;0.85;;;12.70;99.90;;;;;;4932903;29;20244;-68
2022/09/04 04:31:33;;;;;;;1.25;1.25;;;12.70;99.90;;;;;;4940646;29;20212;-68
2022/09/04 04:34:08;;;;;;;0.60;0.60;;;12.70;99.90;;;;;;4938769;29;20212;-67
2022/09/04 04:36:44;;;;;;;0.95;0.95;;;12.70;99.90;;;;;;4948956;28;20432;-68
2022/09/04 04:39:20;;;;;;;1.13;1.13;;;12.70;99.90;;;;;;4931492;29;20265;-68
2022/09/04 04:42:04;;;;;;;1.15;1.15;;;12.70;99.90;;;;;;4933291;29;20226;-68
2022/09/04 04:48:08;;;;;;;0.98;0.98;;;12.60;99.90;;;;;;4935786;29;20226;-70
2022/09/04 04:50:42;;;;;;;0.95;0.85;;;12.60;99.90;;;;;;4935520;29;20212;-69
2022/09/04 04:53:18;;;;;;;3.08;0.77;;;12.60;99.90;;;;;;4931102;29;20203;-70
2022/09/04 04:55:50;;;;;;;0.73;0.73;;;12.60;99.90;;;;;;4930685;29;20215;-70
2022/09/04 04:58:39;;;;;;;2.75;1.10;;;12.60;99.90;;;;;;4938023;29;20227;-71
2022/09/04 05:01:14;;;;;;;0.95;0.95;;;12.60;99.90;;;;;;4937553;29;20220;-70
2022/09/04 05:03:53;;;;;;;1.00;0.90;;;12.60;99.90;;;;;;4934683;29;20215;-70
2022/09/04 05:06:28;;;;;;;0.50;0.50;;;12.60;99.90;;;;;;4936321;29;20568;-70
2022/09/04 05:09:05;;;;;;;1.05;1.05;;;12.60;99.90;;;;;;4933485;29;20249;-70
2022/09/04 05:11:39;;;;;;;0.60;0.60;;;12.60;99.90;;;;;;4934887;29;20286;-70
2022/09/04 05:14:17;;;;;;;1.02;1.02;;;12.60;99.90;;;;;;4935981;29;20558;-70
2022/09/04 05:16:54;;;;;;;0.70;0.70;;;12.60;99.90;;;;;;4936108;29;20237;-70
2022/09/04 05:19:29;;;;;;;2.60;1.20;;;12.50;99.90;;;;;;4935535;29;20204;-69
2022/09/04 05:22:04;;;;;;;1.00;1.00;;;12.50;99.90;;;;;;4935755;29;20347;-70
2022/09/04 05:24:37;;;;;;;0.60;0.60;;;12.60;99.90;;;;;;4933611;29;20217;-69
2022/09/04 05:27:11;;;;;;;0.90;0.90;;;12.60;99.90;;;;;;4936170;29;20207;-69
2022/09/04 05:29:46;;;;;;;0.70;0.70;;;12.60;99.90;;;;;;4936223;29;20313;-69
2022/09/04 05:32:19;;;;;;;0.80;0.80;;;12.60;99.90;;;;;;4936466;29;20216;-69
2022/09/04 05:35:01;;;;;;;0.80;0.80;;;12.70;99.90;;;;;;4935023;29;20219;-69
2022/09/04 05:37:35;;;;;;;0.90;0.90;;;12.70;99.90;;;;;;4933943;29;20243;-69
2022/09/04 05:40:14;;;;;;;3.50;0.90;;;12.70;99.90;;;;;;4934597;29;20205;-69
2022/09/04 05:42:57;;;;;;;0.63;0.63;;;12.80;99.90;;;;;;4972282;23;20242;-72
2022/09/04 05:45:31;;;;;;;0.85;0.85;;;12.90;99.90;;;;;;4953154;28;20228;-73
2022/09/04 05:48:10;;;;;;;0.63;0.63;;;12.90;99.90;;;;;;4953825;28;20206;-73
2022/09/04 05:50:53;;;;;;;1.13;1.02;;;13.00;99.90;;;;;;4962263;28;20214;-72
2022/09/04 05:53:47;;;;;;;0.75;0.75;;;13.00;99.90;;;;;;4953807;28;20230;-72
2022/09/04 05:56:59;;;;;;;0.75;0.75;;;13.10;99.90;;;;;;4953190;28;20211;-73
2022/09/04 05:59:47;;;;;;;0.52;0.52;;;13.20;99.90;;;;;;4940006;28;20211;-72
2022/09/04 06:02:29;;;;;;;0.70;0.70;;;13.30;99.90;;;;;;4954585;28;20230;-73
2022/09/04 06:05:09;;;;;;;0.70;0.70;;;13.30;99.90;;;;;;4960756;28;20203;-72
2022/09/04 06:07:43;;;;;;;1.08;1.08;;;13.40;99.90;;;;;;4953267;29;20198;-73
2022/09/04 06:10:16;;;;;;;0.70;0.70;;;13.50;99.90;;;;;;4952382;28;20329;-74
2022/09/04 06:13:18;;;;;;;0.63;0.63;;;13.60;99.90;;;;;;4954426;28;20498;-72
2022/09/04 06:15:55;;;;;;;0.50;0.50;;;13.70;99.90;;;;;;4950209;28;20474;-72
2022/09/04 06:18:53;;;;;;;2.37;0.90;;;13.80;99.90;;;;;;4955528;28;20217;-73
2022/09/04 06:21:52;;;;;;;0.67;0.67;;;13.90;99.90;;;;;;4932948;28;20507;-73
2022/09/04 06:24:58;;;;;;;0.67;0.67;;;14.00;99.90;;;;;;4942366;29;20467;-73
2022/09/04 06:27:40;;;;;;;1.00;1.00;;;14.10;99.90;;;;;;4934906;29;20464;-73
2022/09/04 06:30:10;;;;;;;0.90;0.90;;;14.20;99.90;;;;;;4936171;29;21041;-73
2022/09/04 06:33:02;;;;;;;2.43;1.13;;;14.40;99.90;;;;;;4943467;28;20494;-73
2022/09/04 06:36:05;;;;;;;1.07;0.80;;;14.60;99.90;;;;;;4964597;28;20468;-72
2022/09/04 06:38:42;;;;;;;0.50;0.50;;;14.80;99.90;;;;;;4934344;28;20554;-73
2022/09/04 06:41:28;;;;;;;0.73;0.73;;;15.00;99.90;;;;;;4936273;28;20479;-73
2022/09/04 06:44:03;;;;;;;1.00;1.00;;;15.20;99.90;;;;;;4955999;28;21000;-72
2022/09/04 06:46:38;;;;;;;0.80;0.80;;;15.40;99.90;;;;;;4950775;28;20470;-73
2022/09/04 06:49:12;;;;;;;0.77;0.77;;;15.50;99.90;;;;;;4951975;28;21189;-72
2022/09/04 06:51:52;;;;;;;1.30;0.90;;;15.50;99.90;;;;;;4953356;28;20488;-73
2022/09/04 06:54:35;;;;;;;1.13;0.60;;;15.70;99.90;;;;;;4952376;28;20848;-73
2022/09/04 06:57:28;;;;;;;0.80;0.80;;;15.80;99.90;;;;;;4944094;28;20472;-73
2022/09/04 07:00:05;;;;;;;0.67;0.67;;;15.90;99.90;;;;;;4942787;29;21013;-73
2022/09/04 07:02:50;;;;;;;0.63;0.63;;;16.00;99.90;;;;;;4940418;29;20488;-73
2022/09/04 07:05:25;;;;;;;0.60;0.60;;;16.10;99.90;;;;;;4950494;28;20843;-73
2022/09/04 07:08:01;;;;;;;0.70;0.70;;;16.20;99.90;;;;;;4951811;28;20469;-72
2022/09/04 07:10:32;;;;;;;0.90;0.90;;;16.30;99.90;;;;;;4951081;28;20489;-72
2022/09/04 07:13:25;;;;;;;0.87;0.87;;;16.40;99.90;;;;;;4951441;28;20503;-73
2022/09/04 07:16:12;;;;;;;1.47;1.47;;;16.40;99.90;;;;;;4946635;29;20483;-74
2022/09/04 07:18:57;;;;;;;1.43;1.33;;;16.50;99.90;;;;;;4950159;28;20474;-73
2022/09/04 07:21:32;;;;;;;1.07;1.07;;;16.70;99.90;;;;;;4951904;28;20494;-73
2022/09/04 07:24:05;;;;;;;0.60;0.60;;;16.70;99.90;;;;;;4952382;29;20468;-74
2022/09/04 07:26:37;;;;;;;0.90;0.90;;;16.80;99.90;;;;;;4943960;28;20479;-73
2022/09/04 07:29:14;;;;;;;1.33;1.00;;;16.90;99.90;;;;;;4960210;28;20493;-72
2022/09/04 07:31:46;;;;;;;0.90;0.90;;;17.00;99.90;;;;;;4936605;29;20496;-74
2022/09/04 07:34:25;;;;;;;0.90;0.90;;;17.20;99.90;;;;;;4952662;28;20834;-73
2022/09/04 07:36:58;;;;;;;1.03;0.70;;;17.20;99.90;;;;;;4945366;29;20474;-74
2022/09/04 07:39:33;;;;;;;0.73;0.73;;;17.30;99.90;;;;;;4952712;28;20492;-73
2022/09/04 07:42:08;;;;;;;1.13;1.13;;;17.40;99.90;;;;;;4947431;28;20505;-73
2022/09/04 07:44:45;;;;;;;1.30;0.93;;;17.50;99.90;;;;;;4950317;28;20539;-73
2022/09/04 07:47:18;;;;;;;1.10;1.10;;;17.60;99.90;;;;;;4951674;28;20552;-74
2022/09/04 07:49:55;;;;;;;1.13;1.13;;;17.70;99.90;;;;;;4944585;29;20706;-74
2022/09/04 07:52:42;;;;;;;1.93;1.83;;;17.80;99.90;;;;;;4950103;29;21635;-74
2022/09/04 07:55:17;;;;;;;1.20;1.20;;;17.90;99.90;;;;;;4956947;28;20553;-73
2022/09/04 07:58:08;;;;;;;0.90;0.90;;;18.00;99.90;;;;;;4950966;29;20985;-73
2022/09/04 08:00:50;;;;;;;1.20;1.20;;;18.10;99.90;;;;;;4958033;28;20469;-74
2022/09/04 08:03:31;;;;;;;1.80;1.70;;;18.20;99.90;;;;;;4949312;28;20551;-72
2022/09/04 08:06:12;;;;;;;0.70;0.70;;;18.30;99.90;;;;;;4955838;28;20470;-73
2022/09/04 08:09:14;;;;;;;1.87;1.77;;;18.40;99.90;;;;;;4948572;28;20689;-73
2022/09/04 08:11:57;;;;;;;1.30;1.30;;;18.40;99.90;;;;;;4952802;29;20488;-71
2022/09/04 08:14:36;;;;;;;1.00;1.00;;;18.50;99.90;;;;;;4961706;28;20501;-73
2022/09/04 08:17:42;;;;;;;1.20;1.20;;;18.60;99.90;;;;;;4961845;28;20537;-73
2022/09/04 08:20:21;;;;;;;1.33;1.33;;;18.60;99.90;;;;;;4950956;29;20470;-73
2022/09/04 08:22:57;;;;;;;1.60;1.60;;;18.80;99.90;;;;;;4950277;28;20493;-74
2022/09/04 08:25:29;;;;;;;1.80;1.70;;;18.80;99.90;;;;;;4955242;28;20491;-74
2022/09/04 08:28:26;;;;;;;1.10;1.10;;;18.90;99.90;;;;;;4955426;28;20474;-74
2022/09/04 08:30:58;;;;;;;1.40;1.40;;;19.00;99.90;;;;;;4953383;28;20509;-74
2022/09/04 08:33:51;;;;;;;1.30;1.30;;;19.10;99.90;;;;;;4952648;28;20499;-73
2022/09/04 08:36:27;;;;;;;1.00;0.90;;;19.30;99.90;;;;;;4952669;28;20467;-73
2022/09/04 08:39:07;;;;;;;1.23;1.23;;;19.40;99.90;;;;;;4952991;28;20466;-74
2022/09/04 08:42:04;;;;;;;1.17;1.17;;;19.50;99.90;;;;;;4955420;28;20470;-74
2022/09/04 08:45:05;;;;;;;1.10;1.10;;;19.60;99.90;;;;;;4952175;28;20471;-74
2022/09/04 08:47:59;;;;;;;1.30;1.30;;;19.70;99.90;;;;;;4951795;28;20475;-74
2022/09/04 08:50:45;;;;;;;1.50;1.50;;;19.80;99.90;;;;;;4952124;28;20799;-73
2022/09/04 08:53:41;;;;;;;1.10;1.10;;;19.90;99.90;;;;;;4944148;29;21028;-73
2022/09/04 08:56:35;;;;;;;1.77;1.67;;;20.00;99.90;;;;;;4936605;29;20472;-73
2022/09/04 08:59:49;;;;;;;1.67;1.67;;;20.10;99.90;;;;;;4945273;29;20471;-73
2022/09/04 09:02:53;;;;;;;1.23;1.23;;;20.10;99.90;;;;;;4879860;29;20625;-73
2022/09/04 09:06:05;;;;;;;1.50;1.50;;;20.10;99.90;;;;;;4920459;29;20476;-73
2022/09/04 09:09:11;;;;;;;1.30;1.30;;;20.20;99.90;;;;;;4933724;28;20465;-73
2022/09/04 09:12:08;;;;;;;2.03;1.93;;;20.30;99.90;;;;;;4952716;29;20472;-73
2022/09/04 09:15:09;;;;;;;1.70;1.70;;;20.50;99.90;;;;;;4948343;29;20831;-73
2022/09/04 09:17:39;;;;;;;1.40;1.40;;;20.60;99.90;;;;;;4954506;29;20507;-73
2022/09/04 09:20:26;;;;;;;2.00;1.50;;;20.60;99.90;;;;;;4960517;28;20472;-73
2022/09/04 09:23:36;;;;;;;1.53;1.53;;;20.60;99.90;;;;;;4946039;28;20519;-73
2022/09/04 09:26:25;;;;;;;1.20;1.20;;;20.60;99.90;;;;;;4906813;29;20458;-73
2022/09/04 09:29:27;;;;;;;1.37;1.37;;;20.80;99.90;;;;;;4899417;29;20517;-73
2022/09/04 09:32:45;;;;;;;1.50;1.40;;;20.80;99.90;;;;;;4908750;28;20968;-73
2022/09/04 09:35:54;;;;;;;1.13;1.13;;;20.80;99.90;;;;;;4949581;28;20555;-72
2022/09/04 09:38:59;;;;;;;1.00;1.00;;;20.80;99.90;;;;;;4953410;28;20479;-73
2022/09/04 09:41:53;;;;;;;0.93;0.93;;;20.80;99.90;;;;;;4956327;28;20471;-73
2022/09/04 09:44:55;;;;;;;1.47;1.47;;;20.80;99.90;;;;;;4956682;28;20802;-73
2022/09/04 09:47:45;;;;;;;1.60;1.57;;;20.90;99.90;;;;;;4956498;28;20464;-73
2022/09/04 09:50:35;;;;;;;0.93;0.93;;;21.00;99.90;;;;;;4931128;28;20511;-73
2022/09/04 09:53:44;;;;;;;1.73;1.73;;;21.10;99.90;;;;;;4946656;28;20506;-72
2022/09/04 09:57:03;;;;;;;1.40;1.40;;;21.20;99.90;;;;;;4949836;28;20487;-74
2022/09/04 09:59:45;;;;;;;1.57;1.57;;;21.30;99.90;;;;;;4951141;29;20462;-72
2022/09/04 10:02:27;;;;;;;2.30;1.40;;;21.30;99.90;;;;;;4954196;28;20485;-74
2022/09/04 10:05:41;;;;;;;1.40;1.40;;;21.50;99.90;;;;;;4951214;28;20480;-73
2022/09/04 10:08:29;;;;;;;0.70;0.70;;;21.60;99.90;;;;;;4948892;28;20943;-73
2022/09/04 10:11:32;;;;;;;1.13;1.13;;;21.60;99.90;;;;;;4953111;28;20509;-72
2022/09/04 10:14:36;;;;;;;1.10;1.10;;;21.80;99.90;;;;;;4939688;28;20477;-72
2022/09/04 10:17:33;;;;;;;1.40;1.30;;;21.90;99.90;;;;;;4914326;28;20465;-74
2022/09/04 10:20:38;;;;;;;0.83;0.83;;;21.80;99.90;;;;;;4954194;28;20469;-72
2022/09/04 10:24:04;;;;;;;1.30;1.20;;;21.90;99.90;;;;;;4952812;29;20541;-71
2022/09/04 10:27:03;;;;;;;1.37;1.37;;;22.10;99.90;;;;;;4903795;29;20472;-73
2022/09/04 10:30:01;;;;;;;1.33;1.33;;;22.10;99.90;;;;;;4955467;28;20476;-74
2022/09/04 10:32:53;;;;;;;1.17;1.17;;;22.00;99.90;;;;;;4943647;28;20501;-73
2022/09/04 10:35:24;;;;;;;1.27;1.20;;;22.10;99.90;;;;;;4953006;28;20501;-71
2022/09/04 10:38:31;;;;;;;1.50;1.50;;;22.20;99.90;;;;;;4953822;28;20569;-72
2022/09/04 10:41:31;;;;;;;2.70;1.43;;;22.30;99.90;;;;;;4953347;28;20465;-72
2022/09/04 10:44:14;;;;;;;1.33;1.33;;;22.20;99.90;;;;;;4961601;28;20552;-71
2022/09/04 10:46:53;;;;;;;1.67;1.57;;;22.20;99.90;;;;;;4954183;28;20505;-71
2022/09/04 10:49:39;;;;;;;1.00;1.00;;;22.20;99.90;;;;;;4953403;28;20792;-71
2022/09/04 10:52:40;;;;;;;1.10;1.10;;;22.40;99.90;;;;;;4952811;28;20856;-71
2022/09/04 10:55:25;;;;;;;1.37;1.37;;;22.40;99.90;;;;;;4951668;28;20460;-72
2022/09/04 10:58:14;;;;;;;1.17;1.17;;;22.40;99.90;;;;;;4955003;28;20838;-72
2022/09/04 11:00:53;;;;;;;1.30;1.30;;;22.50;99.90;;;;;;4953681;28;20761;-72
2022/09/04 11:03:45;;;;;;;1.30;1.20;;;22.50;99.90;;;;;;4957692;28;20489;-72
2022/09/04 11:06:54;;;;;;;1.50;1.33;;;22.60;99.90;;;;;;4973257;28;20468;-74
2022/09/04 11:09:50;;;;;;;1.30;1.30;;;22.60;99.90;;;;;;4968998;28;20492;-74
2022/09/04 11:12:51;;;;;;;1.27;1.27;;;22.60;99.90;;;;;;4972463;28;20493;-73
2022/09/04 11:15:46;;;;;;;1.00;1.00;;;22.70;99.90;;;;;;4969735;28;20474;-73
2022/09/04 11:19:09;;;;;;;1.47;1.47;;;22.80;99.90;;;;;;4957342;28;20963;-73
2022/09/04 11:22:18;;;;;;;1.10;1.10;;;22.80;99.90;;;;;;4929444;28;20466;-72
2022/09/04 11:25:20;;;;;;;1.47;1.47;;;22.80;99.90;;;;;;4952575;28;20963;-70
2022/09/04 11:27:59;;;;;;;1.17;1.17;;;22.90;99.90;;;;;;4952734;28;20486;-71
2022/09/04 11:30:38;;;;;;;1.07;1.07;;;22.90;99.90;;;;;;4953238;28;20501;-72
2022/09/04 11:33:38;;;;;;;1.30;1.30;;;22.90;99.90;;;;;;4958085;28;20490;-72
2022/09/04 11:36:22;;;;;;;1.60;1.50;;;22.90;99.90;;;;;;4955193;28;21277;-72
2022/09/04 11:39:25;;;;;;;1.07;1.07;;;23.10;99.90;;;;;;4952017;28;20463;-70
2022/09/04 11:42:21;;;;;;;0.80;0.80;;;23.20;99.90;;;;;;4906647;28;21028;-72
2022/09/04 11:45:17;;;;;;;1.10;1.10;;;23.20;99.90;;;;;;4997956;23;20494;-68
2022/09/04 11:48:17;;;;;;;0.97;0.97;;;23.10;99.90;;;;;;4975573;28;20492;-68
2022/09/04 11:51:00;;;;;;;1.43;1.43;;;23.10;99.90;;;;;;4942445;28;20501;-69
2022/09/04 11:53:59;;;;;;;0.90;0.90;;;23.20;99.90;;;;;;4974590;28;20493;-69
2022/09/04 11:56:52;;;;;;;5.07;2.20;;;23.20;99.90;;;;;;4966652;28;20563;-69
2022/09/04 11:59:38;;;;;;;1.30;1.30;;;23.30;99.90;;;;;;4958694;28;20478;-69
2022/09/04 12:02:30;;;;;;;2.17;1.30;;;23.40;99.90;;;;;;4956470;28;20458;-69
2022/09/04 12:05:38;;;;;;;1.40;1.40;;;23.40;99.90;;;;;;4955513;28;20570;-70
2022/09/04 12:08:24;;;;;;;1.13;1.13;;;23.50;99.50;;;;;;4955477;28;20530;-70
2022/09/04 12:11:12;;;;;;;1.50;1.40;;;23.50;99.70;;;;;;4959080;28;20490;-70
2022/09/04 12:13:56;;;;;;;1.07;1.07;;;23.50;99.70;;;;;;4970542;28;20495;-70
2022/09/04 12:16:51;;;;;;;1.27;1.27;;;23.50;99.50;;;;;;4963764;28;20470;-70
2022/09/04 12:20:05;;;;;;;1.10;1.10;;;23.50;99.20;;;;;;4955472;28;20471;-70
2022/09/04 12:23:02;;;;;;;1.13;1.13;;;23.50;99.10;;;;;;4955245;28;20470;-70
2022/09/04 12:26:08;;;;;;;0.93;0.93;;;23.60;99.30;;;;;;4955824;28;20470;-69
2022/09/04 12:28:52;;;;;;;1.53;1.53;;;23.80;98.80;;;;;;4968620;28;20979;-70
2022/09/04 12:31:39;;;;;;;1.40;1.30;;;23.80;99.00;;;;;;4972399;28;20498;-69
2022/09/04 12:34:29;;;;;;;1.07;1.07;;;23.80;98.70;;;;;;4974209;28;20506;-70
2022/09/04 12:37:36;;;;;;;1.60;1.60;;;23.90;98.70;;;;;;4974610;28;20488;-70
2022/09/04 12:40:31;;;;;;;1.17;1.17;;;24.00;98.60;;;;;;4974564;28;20478;-70
2022/09/04 12:43:15;;;;;;;1.50;1.50;;;23.90;98.20;;;;;;4972767;28;20466;-70
2022/09/04 12:45:51;;;;;;;1.20;1.20;;;23.90;98.30;;;;;;4965688;28;20470;-69
2022/09/04 12:48:26;;;;;;;1.13;1.13;;;24.00;98.60;;;;;;4957777;28;20467;-69
2022/09/04 12:51:00;;;;;;;1.20;1.20;;;24.00;98.10;;;;;;4954905;28;20521;-70
2022/09/04 12:53:44;;;;;;;1.40;1.40;;;24.00;98.50;;;;;;4954805;28;20510;-70
2022/09/04 12:56:15;;;;;;;0.83;0.83;;;24.10;98.10;;;;;;4955484;28;20451;-70
2022/09/04 12:59:01;;;;;;;1.40;1.40;;;24.10;98.20;;;;;;4954002;28;20548;-70
2022/09/04 13:01:38;;;;;;;1.20;1.20;;;24.20;98.20;;;;;;4970875;28;20474;-70
2022/09/04 13:04:14;;;;;;;1.57;1.57;;;24.30;97.90;;;;;;4961306;28;20516;-70
2022/09/04 13:06:49;;;;;;;0.80;0.80;;;24.40;97.50;;;;;;4967041;28;20803;-69
2022/09/04 13:09:24;;;;;;;1.10;1.10;;;24.40;97.10;;;;;;4974293;28;20480;-69
2022/09/04 13:12:01;;;;;;;1.43;0.90;;;24.40;97.10;;;;;;4974361;28;20497;-69
2022/09/04 13:14:48;;;;;;;1.40;1.27;;;24.30;97.00;;;;;;4974084;28;20517;-69
2022/09/04 13:17:22;;;;;;;1.30;1.30;;;24.40;96.80;;;;;;4972158;28;20471;-70
2022/09/04 13:19:59;;;;;;;0.73;0.73;;;24.40;97.00;;;;;;4967391;28;20494;-69
2022/09/04 13:22:34;;;;;;;1.30;1.30;;;24.40;96.40;;;;;;4974557;28;20470;-70
2022/09/04 13:25:12;;;;;;;1.13;1.03;;;24.30;96.50;;;;;;4983020;28;20489;-70
2022/09/04 13:27:56;;;;;;;0.97;0.97;;;24.30;96.90;;;;;;4982759;28;20475;-70
2022/09/04 13:30:25;;;;;;;0.70;0.70;;;24.30;96.50;;;;;;4982040;28;20545;-70
2022/09/04 13:33:16;;;;;;;0.90;0.90;;;24.20;97.00;;;;;;4975169;28;20919;-70
2022/09/04 13:36:15;;;;;;;0.90;0.90;;;24.30;96.80;;;;;;4973324;28;20470;-70
2022/09/04 13:39:15;;;;;;;0.93;0.93;;;24.30;97.00;;;;;;4973294;28;20469;-70
2022/09/04 13:42:09;;;;;;;1.20;1.20;;;24.40;96.10;;;;;;4973692;28;20476;-69
2022/09/04 13:44:56;;;;;;;1.00;1.00;;;24.40;96.50;;;;;;4971884;28;20502;-69
2022/09/04 13:47:26;;;;;;;0.97;0.97;;;24.50;96.20;;;;;;4975706;28;20478;-69
2022/09/04 13:49:58;;;;;;;1.10;1.10;;;24.60;96.40;;;;;;4969992;28;20476;-70
2022/09/04 13:52:32;;;;;;;15.00;1.70;;;24.60;95.70;;;;;;4966175;28;20493;-69
2022/09/04 13:55:03;;;;;;;0.80;0.80;;;24.70;95.60;;;;;;4954148;28;20492;-70
2022/09/04 13:57:35;;;;;;;1.43;1.43;;;24.70;95.70;;;;;;4954402;28;20472;-70
2022/09/04 14:00:06;;;;;;;0.90;0.90;;;24.80;95.50;;;;;;4954974;28;20470;-70
2022/09/04 14:02:37;;;;;;;0.67;0.67;;;24.90;95.20;;;;;;4953861;28;20966;-69
2022/09/04 14:05:09;;;;;;;1.00;1.00;;;25.00;95.10;;;;;;4958294;28;20527;-69
2022/09/04 14:07:38;;;;;;;1.10;1.10;;;25.00;94.50;;;;;;4964559;28;20467;-69
2022/09/04 14:10:11;;;;;;;1.17;1.17;;;25.10;94.50;;;;;;4964763;28;20495;-69
2022/09/04 14:13:09;;;;;;;1.13;1.13;;;25.00;94.50;;;;;;4961119;28;20504;-68
2022/09/04 14:16:02;;;;;;;0.83;0.83;;;24.90;94.80;;;;;;4953620;28;20449;-69
2022/09/04 14:18:55;;;;;;;1.10;1.10;;;24.90;94.90;;;;;;4953352;28;20957;-69